sensor_id;sensor_type;location;lat;lon;timestamp;P1;durP1;ratioP1;P2;durP2;ratioP2
67429;SDS011;54298;52.076;5.264;2022-11-25T00:01:12;23.1;;;6.8;;
67429;SDS011;54298;52.076;5.264;2022-11-25T00:02:50;21.1;;;6.2;;
67429;SDS011;54298;52.076;5.264;2022-11-25T00:04:28;25.5;;;7.3;;
67429;SDS011;54298;52.076;5.264;2022-11-25T00:07:50;23.4;;;6.8;;
67429;SDS011;54298;52.076;5.264;2022-11-25T00:09:27;21.7;;;6.0;;
67429;SDS011;54298;52.076;5.264;2022-11-25T00:11:03;24.1;;;6.1;;
67429;SDS011;54298;52.076;5.264;2022-11-25T00:12:41;23.7;;;6.5;;
67429;SDS011;54298;52.076;5.264;2022-11-25T00:15:53;22.0;;;6.2;;
67429;SDS011;54298;52.076;5.264;2022-11-25T00:17:30;21.7;;;5.2;;
67429;SDS011;54298;52.076;5.264;2022-11-25T00:19:06;22.2;;;6.7;;
67429;SDS011;54298;52.076;5.264;2022-11-25T00:22:18;20.5;;;6.3;;
67429;SDS011;54298;52.076;5.264;2022-11-25T00:25:33;26.7;;;7.1;;
67429;SDS011;54298;52.076;5.264;2022-11-25T00:28:46;25.1;;;6.4;;
67429;SDS011;54298;52.076;5.264;2022-11-25T00:30:23;21.7;;;6.5;;
67429;SDS011;54298;52.076;5.264;2022-11-25T00:31:59;23.5;;;6.0;;
67429;SDS011;54298;52.076;5.264;2022-11-25T00:33:35;21.7;;;7.0;;
67429;SDS011;54298;52.076;5.264;2022-11-25T00:36:48;18.3;;;6.0;;
67429;SDS011;54298;52.076;5.264;2022-11-25T00:38:25;25.1;;;6.5;;
67429;SDS011;54298;52.076;5.264;2022-11-25T00:40:01;23.5;;;6.0;;
67429;SDS011;54298;52.076;5.264;2022-11-25T00:45:47;19.7;;;5.9;;
67429;SDS011;54298;52.076;5.264;2022-11-25T00:47:23;19.91;;;5.9;;
67429;SDS011;54298;52.076;5.264;2022-11-25T00:49:00;20.7;;;5.3;;
67429;SDS011;54298;52.076;5.264;2022-11-25T00:50:36;19.0;;;5.5;;
67429;SDS011;54298;52.076;5.264;2022-11-25T00:53:51;19.0;;;5.5;;
67429;SDS011;54298;52.076;5.264;2022-11-25T00:56:12;19.0;;;5.6;;
67429;SDS011;54298;52.076;5.264;2022-11-25T00:57:47;19.91;;;7.0;;
67429;SDS011;54298;52.076;5.264;2022-11-25T00:59:24;23.5;;;5.9;;
67429;SDS011;54298;52.076;5.264;2022-11-25T01:01:01;23.3;;;6.0;;
67429;SDS011;54298;52.076;5.264;2022-11-25T01:04:13;19.41;;;6.4;;
67429;SDS011;54298;52.076;5.264;2022-11-25T01:05:49;26.8;;;8.81;;
67429;SDS011;54298;52.076;5.264;2022-11-25T01:07:26;19.11;;;6.6;;
67429;SDS011;54298;52.076;5.264;2022-11-25T01:10:39;18.3;;;7.0;;
67429;SDS011;54298;52.076;5.264;2022-11-25T01:12:15;25.7;;;10.9;;
67429;SDS011;54298;52.076;5.264;2022-11-25T01:13:55;16.7;;;6.1;;
67429;SDS011;54298;52.076;5.264;2022-11-25T01:15:34;19.5;;;5.9;;
67429;SDS011;54298;52.076;5.264;2022-11-25T01:18:49;21.8;;;5.7;;
67429;SDS011;54298;52.076;5.264;2022-11-25T01:20:26;17.61;;;5.6;;
67429;SDS011;54298;52.076;5.264;2022-11-25T01:22:02;22.0;;;6.3;;
67429;SDS011;54298;52.076;5.264;2022-11-25T01:25:16;22.0;;;6.3;;
67429;SDS011;54298;52.076;5.264;2022-11-25T01:26:53;22.6;;;7.0;;
67429;SDS011;54298;52.076;5.264;2022-11-25T01:28:30;23.8;;;6.7;;
67429;SDS011;54298;52.076;5.264;2022-11-25T01:30:08;24.8;;;7.6;;
67429;SDS011;54298;52.076;5.264;2022-11-25T01:33:21;20.8;;;6.3;;
67429;SDS011;54298;52.076;5.264;2022-11-25T01:34:58;23.3;;;6.2;;
67429;SDS011;54298;52.076;5.264;2022-11-25T01:36:34;20.41;;;5.5;;
67429;SDS011;54298;52.076;5.264;2022-11-25T01:39:46;23.4;;;7.6;;
67429;SDS011;54298;52.076;5.264;2022-11-25T01:41:23;16.9;;;5.2;;
67429;SDS011;54298;52.076;5.264;2022-11-25T01:43:00;23.8;;;8.1;;
67429;SDS011;54298;52.076;5.264;2022-11-25T01:44:37;20.11;;;5.5;;
67429;SDS011;54298;52.076;5.264;2022-11-25T01:48:01;20.7;;;6.3;;
67429;SDS011;54298;52.076;5.264;2022-11-25T01:49:45;20.2;;;5.5;;
67429;SDS011;54298;52.076;5.264;2022-11-25T01:51:32;18.41;;;6.5;;
67429;SDS011;54298;52.076;5.264;2022-11-25T01:53:21;23.3;;;5.8;;
67429;SDS011;54298;52.076;5.264;2022-11-25T01:56:41;25.1;;;7.0;;
67429;SDS011;54298;52.076;5.264;2022-11-25T01:58:24;19.2;;;5.8;;
67429;SDS011;54298;52.076;5.264;2022-11-25T02:00:05;24.1;;;6.7;;
67429;SDS011;54298;52.076;5.264;2022-11-25T02:01:44;20.8;;;6.3;;
67429;SDS011;54298;52.076;5.264;2022-11-25T02:05:03;21.1;;;6.8;;
67429;SDS011;54298;52.076;5.264;2022-11-25T02:06:46;23.2;;;7.1;;
67429;SDS011;54298;52.076;5.264;2022-11-25T02:08:27;24.9;;;9.31;;
67429;SDS011;54298;52.076;5.264;2022-11-25T02:10:05;24.9;;;6.6;;
67429;SDS011;54298;52.076;5.264;2022-11-25T02:13:24;23.1;;;8.31;;
67429;SDS011;54298;52.076;5.264;2022-11-25T02:15:01;22.7;;;5.9;;
67429;SDS011;54298;52.076;5.264;2022-11-25T02:16:39;20.9;;;5.8;;
67429;SDS011;54298;52.076;5.264;2022-11-25T02:18:15;22.4;;;6.1;;
67429;SDS011;54298;52.076;5.264;2022-11-25T02:21:38;23.5;;;6.5;;
67429;SDS011;54298;52.076;5.264;2022-11-25T02:23:24;23.0;;;6.8;;
67429;SDS011;54298;52.076;5.264;2022-11-25T02:25:18;23.5;;;6.7;;
67429;SDS011;54298;52.076;5.264;2022-11-25T02:26:57;23.9;;;7.4;;
67429;SDS011;54298;52.076;5.264;2022-11-25T02:28:35;23.5;;;6.8;;
67429;SDS011;54298;52.076;5.264;2022-11-25T02:31:49;22.8;;;7.7;;
67429;SDS011;54298;52.076;5.264;2022-11-25T02:33:27;22.1;;;7.4;;
67429;SDS011;54298;52.076;5.264;2022-11-25T02:35:18;20.9;;;6.4;;
67429;SDS011;54298;52.076;5.264;2022-11-25T02:37:13;22.0;;;6.2;;
67429;SDS011;54298;52.076;5.264;2022-11-25T02:40:33;20.6;;;6.3;;
67429;SDS011;54298;52.076;5.264;2022-11-25T02:42:12;24.4;;;6.3;;
67429;SDS011;54298;52.076;5.264;2022-11-25T02:43:52;17.61;;;5.5;;
67429;SDS011;54298;52.076;5.264;2022-11-25T02:45:32;24.0;;;6.6;;
67429;SDS011;54298;52.076;5.264;2022-11-25T02:48:56;18.2;;;5.9;;
67429;SDS011;54298;52.076;5.264;2022-11-25T02:50:35;22.4;;;6.0;;
67429;SDS011;54298;52.076;5.264;2022-11-25T02:52:10;20.11;;;6.3;;
67429;SDS011;54298;52.076;5.264;2022-11-25T02:53:47;19.11;;;6.2;;
67429;SDS011;54298;52.076;5.264;2022-11-25T02:57:00;21.4;;;6.7;;
67429;SDS011;54298;52.076;5.264;2022-11-25T02:58:36;18.0;;;5.3;;
67429;SDS011;54298;52.076;5.264;2022-11-25T03:00:14;20.9;;;6.4;;
67429;SDS011;54298;52.076;5.264;2022-11-25T03:03:28;20.3;;;6.7;;
67429;SDS011;54298;52.076;5.264;2022-11-25T03:05:04;20.7;;;6.5;;
67429;SDS011;54298;52.076;5.264;2022-11-25T03:06:40;21.8;;;7.2;;
67429;SDS011;54298;52.076;5.264;2022-11-25T03:08:17;21.8;;;7.2;;
67429;SDS011;54298;52.076;5.264;2022-11-25T03:12:33;17.7;;;5.9;;
67429;SDS011;54298;52.076;5.264;2022-11-25T03:14:09;20.7;;;6.1;;
67429;SDS011;54298;52.076;5.264;2022-11-25T03:15:47;21.4;;;6.4;;
67429;SDS011;54298;52.076;5.264;2022-11-25T03:17:24;20.11;;;6.4;;
67429;SDS011;54298;52.076;5.264;2022-11-25T03:19:00;17.7;;;5.4;;
67429;SDS011;54298;52.076;5.264;2022-11-25T03:22:13;18.61;;;6.4;;
67429;SDS011;54298;52.076;5.264;2022-11-25T03:23:49;19.91;;;6.2;;
67429;SDS011;54298;52.076;5.264;2022-11-25T03:25:25;20.11;;;6.3;;
67429;SDS011;54298;52.076;5.264;2022-11-25T03:28:40;19.91;;;5.8;;
67429;SDS011;54298;52.076;5.264;2022-11-25T03:30:17;18.3;;;5.8;;
67429;SDS011;54298;52.076;5.264;2022-11-25T03:31:55;18.7;;;6.3;;
67429;SDS011;54298;52.076;5.264;2022-11-25T03:33:31;17.3;;;5.5;;
67429;SDS011;54298;52.076;5.264;2022-11-25T03:36:46;20.0;;;6.7;;
67429;SDS011;54298;52.076;5.264;2022-11-25T03:38:22;19.41;;;5.6;;
67429;SDS011;54298;52.076;5.264;2022-11-25T03:39:58;20.7;;;5.9;;
67429;SDS011;54298;52.076;5.264;2022-11-25T03:43:10;18.61;;;5.3;;
67429;SDS011;54298;52.076;5.264;2022-11-25T03:44:47;14.8;;;5.3;;
67429;SDS011;54298;52.076;5.264;2022-11-25T03:46:23;19.41;;;6.1;;
67429;SDS011;54298;52.076;5.264;2022-11-25T03:49:35;17.41;;;4.91;;
67429;SDS011;54298;52.076;5.264;2022-11-25T03:51:11;19.61;;;5.5;;
67429;SDS011;54298;52.076;5.264;2022-11-25T03:54:24;18.91;;;5.11;;
67429;SDS011;54298;52.076;5.264;2022-11-25T03:57:37;16.11;;;5.4;;
67429;SDS011;54298;52.076;5.264;2022-11-25T03:59:13;17.7;;;5.2;;
67429;SDS011;54298;52.076;5.264;2022-11-25T04:00:50;15.9;;;4.8;;
67429;SDS011;54298;52.076;5.264;2022-11-25T04:04:04;13.6;;;4.8;;
67429;SDS011;54298;52.076;5.264;2022-11-25T04:07:16;14.4;;;4.91;;
67429;SDS011;54298;52.076;5.264;2022-11-25T04:10:29;16.0;;;4.1;;
67429;SDS011;54298;52.076;5.264;2022-11-25T04:13:09;12.5;;;4.41;;
67429;SDS011;54298;52.076;5.264;2022-11-25T04:14:46;12.2;;;3.8;;
67429;SDS011;54298;52.076;5.264;2022-11-25T04:16:23;15.9;;;4.3;;
67429;SDS011;54298;52.076;5.264;2022-11-25T04:18:01;11.2;;;4.1;;
67429;SDS011;54298;52.076;5.264;2022-11-25T04:19:37;10.6;;;3.9;;
67429;SDS011;54298;52.076;5.264;2022-11-25T04:22:49;12.5;;;3.9;;
67429;SDS011;54298;52.076;5.264;2022-11-25T04:24:25;10.1;;;3.6;;
67429;SDS011;54298;52.076;5.264;2022-11-25T04:26:03;9.71;;;2.7;;
67429;SDS011;54298;52.076;5.264;2022-11-25T04:29:16;7.7;;;2.8;;
67429;SDS011;54298;52.076;5.264;2022-11-25T04:30:52;9.6;;;2.9;;
67429;SDS011;54298;52.076;5.264;2022-11-25T04:38:53;9.21;;;2.9;;
67429;SDS011;54298;52.076;5.264;2022-11-25T04:40:29;7.6;;;2.5;;
67429;SDS011;54298;52.076;5.264;2022-11-25T04:44:15;9.31;;;2.5;;
67429;SDS011;54298;52.076;5.264;2022-11-25T04:45:51;6.0;;;2.6;;
67429;SDS011;54298;52.076;5.264;2022-11-25T04:47:28;7.4;;;2.6;;
67429;SDS011;54298;52.076;5.264;2022-11-25T04:49:05;6.6;;;2.6;;
67429;SDS011;54298;52.076;5.264;2022-11-25T04:52:19;7.8;;;2.5;;
67429;SDS011;54298;52.076;5.264;2022-11-25T04:53:56;9.1;;;2.6;;
67429;SDS011;54298;52.076;5.264;2022-11-25T04:55:32;7.5;;;2.21;;
67429;SDS011;54298;52.076;5.264;2022-11-25T04:57:09;5.3;;;1.9;;
67429;SDS011;54298;52.076;5.264;2022-11-25T05:01:29;7.1;;;2.0;;
67429;SDS011;54298;52.076;5.264;2022-11-25T05:04:43;6.1;;;1.8;;
67429;SDS011;54298;52.076;5.264;2022-11-25T05:06:22;6.3;;;1.8;;
67429;SDS011;54298;52.076;5.264;2022-11-25T05:07:59;8.0;;;2.31;;
67429;SDS011;54298;52.076;5.264;2022-11-25T05:11:12;6.1;;;1.9;;
67429;SDS011;54298;52.076;5.264;2022-11-25T05:12:49;6.9;;;2.1;;
67429;SDS011;54298;52.076;5.264;2022-11-25T05:14:25;7.4;;;2.0;;
67429;SDS011;54298;52.076;5.264;2022-11-25T05:16:01;5.9;;;2.0;;
67429;SDS011;54298;52.076;5.264;2022-11-25T05:19:13;8.71;;;2.1;;
67429;SDS011;54298;52.076;5.264;2022-11-25T05:20:49;5.3;;;2.21;;
67429;SDS011;54298;52.076;5.264;2022-11-25T05:22:26;7.1;;;2.1;;
67429;SDS011;54298;52.076;5.264;2022-11-25T05:25:41;5.3;;;1.9;;
67429;SDS011;54298;52.076;5.264;2022-11-25T05:27:18;5.8;;;2.31;;
67429;SDS011;54298;52.076;5.264;2022-11-25T05:28:55;6.6;;;2.1;;
67429;SDS011;54298;52.076;5.264;2022-11-25T05:32:07;4.7;;;2.1;;
67429;SDS011;54298;52.076;5.264;2022-11-25T05:33:43;7.0;;;2.0;;
67429;SDS011;54298;52.076;5.264;2022-11-25T05:35:20;5.5;;;2.1;;
67429;SDS011;54298;52.076;5.264;2022-11-25T05:36:57;7.4;;;2.1;;
67429;SDS011;54298;52.076;5.264;2022-11-25T05:40:10;6.9;;;2.31;;
67429;SDS011;54298;52.076;5.264;2022-11-25T05:41:47;8.0;;;2.1;;
67429;SDS011;54298;52.076;5.264;2022-11-25T05:43:23;6.9;;;2.1;;
67429;SDS011;54298;52.076;5.264;2022-11-25T05:46:37;6.4;;;2.1;;
67429;SDS011;54298;52.076;5.264;2022-11-25T05:48:14;6.4;;;2.1;;
67429;SDS011;54298;52.076;5.264;2022-11-25T05:49:50;5.5;;;1.8;;
67429;SDS011;54298;52.076;5.264;2022-11-25T05:53:04;5.5;;;1.8;;
67429;SDS011;54298;52.076;5.264;2022-11-25T05:54:41;7.2;;;2.1;;
67429;SDS011;54298;52.076;5.264;2022-11-25T05:56:16;5.2;;;1.9;;
67429;SDS011;54298;52.076;5.264;2022-11-25T05:57:52;5.7;;;2.21;;
67429;SDS011;54298;52.076;5.264;2022-11-25T06:01:06;6.4;;;2.1;;
67429;SDS011;54298;52.076;5.264;2022-11-25T06:02:43;6.0;;;2.0;;
67429;SDS011;54298;52.076;5.264;2022-11-25T06:04:19;6.4;;;2.31;;
67429;SDS011;54298;52.076;5.264;2022-11-25T06:07:32;7.8;;;3.2;;
67429;SDS011;54298;52.076;5.264;2022-11-25T06:09:09;13.9;;;7.0;;
67429;SDS011;54298;52.076;5.264;2022-11-25T06:10:45;30.1;;;15.3;;
67429;SDS011;54298;52.076;5.264;2022-11-25T06:13:57;18.3;;;7.6;;
67429;SDS011;54298;52.076;5.264;2022-11-25T06:15:33;8.5;;;3.9;;
67429;SDS011;54298;52.076;5.264;2022-11-25T06:17:15;36.0;;;18.91;;
67429;SDS011;54298;52.076;5.264;2022-11-25T06:18:52;12.7;;;5.4;;
67429;SDS011;54298;52.076;5.264;2022-11-25T06:22:04;6.5;;;2.6;;
67429;SDS011;54298;52.076;5.264;2022-11-25T06:23:40;7.0;;;2.5;;
67429;SDS011;54298;52.076;5.264;2022-11-25T06:25:16;6.1;;;2.21;;
67429;SDS011;54298;52.076;5.264;2022-11-25T06:28:29;7.5;;;2.6;;
67429;SDS011;54298;52.076;5.264;2022-11-25T06:30:06;7.6;;;2.4;;
67429;SDS011;54298;52.076;5.264;2022-11-25T06:31:42;7.9;;;3.1;;
67429;SDS011;54298;52.076;5.264;2022-11-25T06:33:18;10.8;;;2.9;;
67429;SDS011;54298;52.076;5.264;2022-11-25T06:36:31;7.4;;;2.6;;
67429;SDS011;54298;52.076;5.264;2022-11-25T06:38:07;6.0;;;2.4;;
67429;SDS011;54298;52.076;5.264;2022-11-25T06:39:43;8.5;;;2.9;;
67429;SDS011;54298;52.076;5.264;2022-11-25T06:42:57;6.9;;;2.6;;
67429;SDS011;54298;52.076;5.264;2022-11-25T06:44:34;6.5;;;3.1;;
67429;SDS011;54298;52.076;5.264;2022-11-25T06:46:11;7.7;;;2.7;;
67429;SDS011;54298;52.076;5.264;2022-11-25T06:49:28;5.7;;;2.5;;
67429;SDS011;54298;52.076;5.264;2022-11-25T06:51:06;7.9;;;2.7;;
67429;SDS011;54298;52.076;5.264;2022-11-25T06:52:46;7.8;;;2.8;;
67429;SDS011;54298;52.076;5.264;2022-11-25T06:54:22;8.9;;;2.9;;
67429;SDS011;54298;52.076;5.264;2022-11-25T06:57:45;6.8;;;2.9;;
67429;SDS011;54298;52.076;5.264;2022-11-25T06:59:21;8.6;;;2.9;;
67429;SDS011;54298;52.076;5.264;2022-11-25T07:00:59;7.5;;;2.7;;
67429;SDS011;54298;52.076;5.264;2022-11-25T07:02:37;10.3;;;6.2;;
67429;SDS011;54298;52.076;5.264;2022-11-25T07:05:49;13.0;;;6.6;;
67429;SDS011;54298;52.076;5.264;2022-11-25T07:07:25;12.1;;;5.3;;
67429;SDS011;54298;52.076;5.264;2022-11-25T07:09:02;12.1;;;4.61;;
67429;SDS011;54298;52.076;5.264;2022-11-25T07:13:53;8.1;;;3.4;;
67429;SDS011;54298;52.076;5.264;2022-11-25T07:15:32;11.1;;;3.2;;
67429;SDS011;54298;52.076;5.264;2022-11-25T07:18:45;13.3;;;5.0;;
67429;SDS011;54298;52.076;5.264;2022-11-25T07:20:24;12.6;;;5.0;;
67429;SDS011;54298;52.076;5.264;2022-11-25T07:22:00;11.2;;;4.61;;
67429;SDS011;54298;52.076;5.264;2022-11-25T07:23:38;15.2;;;7.2;;
67429;SDS011;54298;52.076;5.264;2022-11-25T07:26:52;9.5;;;3.9;;
67429;SDS011;54298;52.076;5.264;2022-11-25T07:28:28;12.6;;;5.6;;
67429;SDS011;54298;52.076;5.264;2022-11-25T07:30:05;9.21;;;3.6;;
67429;SDS011;54298;52.076;5.264;2022-11-25T07:33:20;25.8;;;14.0;;
67429;SDS011;54298;52.076;5.264;2022-11-25T07:34:57;12.9;;;5.7;;
67429;SDS011;54298;52.076;5.264;2022-11-25T07:36:33;10.8;;;5.11;;
67429;SDS011;54298;52.076;5.264;2022-11-25T07:38:10;11.0;;;6.2;;
67429;SDS011;54298;52.076;5.264;2022-11-25T07:41:23;13.0;;;5.3;;
67429;SDS011;54298;52.076;5.264;2022-11-25T07:43:02;9.31;;;4.41;;
67429;SDS011;54298;52.076;5.264;2022-11-25T07:44:39;12.1;;;5.5;;
67429;SDS011;54298;52.076;5.264;2022-11-25T07:47:54;12.6;;;4.91;;
67429;SDS011;54298;52.076;5.264;2022-11-25T07:49:31;10.1;;;4.3;;
67429;SDS011;54298;52.076;5.264;2022-11-25T07:51:12;9.1;;;4.1;;
67429;SDS011;54298;52.076;5.264;2022-11-25T07:52:49;11.9;;;4.5;;
67429;SDS011;54298;52.076;5.264;2022-11-25T07:56:01;20.11;;;9.1;;
67429;SDS011;54298;52.076;5.264;2022-11-25T07:57:38;14.2;;;5.7;;
67429;SDS011;54298;52.076;5.264;2022-11-25T07:59:15;12.2;;;4.0;;
67429;SDS011;54298;52.076;5.264;2022-11-25T08:02:31;15.5;;;4.91;;
67429;SDS011;54298;52.076;5.264;2022-11-25T08:04:08;12.0;;;4.91;;
67429;SDS011;54298;52.076;5.264;2022-11-25T08:05:47;11.7;;;4.3;;
67429;SDS011;54298;52.076;5.264;2022-11-25T08:08:59;10.7;;;5.11;;
67429;SDS011;54298;52.076;5.264;2022-11-25T08:10:38;20.3;;;9.21;;
67429;SDS011;54298;52.076;5.264;2022-11-25T08:12:14;11.9;;;5.9;;
67429;SDS011;54298;52.076;5.264;2022-11-25T08:13:51;10.3;;;4.7;;
67429;SDS011;54298;52.076;5.264;2022-11-25T08:17:05;10.8;;;4.8;;
67429;SDS011;54298;52.076;5.264;2022-11-25T08:18:41;11.0;;;4.3;;
67429;SDS011;54298;52.076;5.264;2022-11-25T08:20:18;10.1;;;4.5;;
67429;SDS011;54298;52.076;5.264;2022-11-25T08:23:30;9.71;;;4.91;;
67429;SDS011;54298;52.076;5.264;2022-11-25T08:25:08;12.5;;;4.61;;
67429;SDS011;54298;52.076;5.264;2022-11-25T08:26:45;8.31;;;4.2;;
67429;SDS011;54298;52.076;5.264;2022-11-25T08:28:22;9.9;;;4.2;;
67429;SDS011;54298;52.076;5.264;2022-11-25T08:31:37;11.0;;;4.8;;
67429;SDS011;54298;52.076;5.264;2022-11-25T08:33:14;15.4;;;5.8;;
67429;SDS011;54298;52.076;5.264;2022-11-25T08:34:51;13.2;;;5.8;;
67429;SDS011;54298;52.076;5.264;2022-11-25T08:38:07;17.41;;;7.4;;
67429;SDS011;54298;52.076;5.264;2022-11-25T08:39:50;17.3;;;7.7;;
67429;SDS011;54298;52.076;5.264;2022-11-25T08:41:27;13.1;;;5.6;;
67429;SDS011;54298;52.076;5.264;2022-11-25T08:43:06;13.0;;;5.9;;
67429;SDS011;54298;52.076;5.264;2022-11-25T08:46:20;11.3;;;5.6;;
67429;SDS011;54298;52.076;5.264;2022-11-25T08:48:01;18.3;;;7.2;;
67429;SDS011;54298;52.076;5.264;2022-11-25T08:51:14;15.2;;;8.31;;
67429;SDS011;54298;52.076;5.264;2022-11-25T08:52:53;39.6;;;21.4;;
67429;SDS011;54298;52.076;5.264;2022-11-25T08:54:29;21.3;;;10.21;;
67429;SDS011;54298;52.076;5.264;2022-11-25T08:56:06;29.5;;;17.3;;
67429;SDS011;54298;52.076;5.264;2022-11-25T08:57:43;20.0;;;8.1;;
67429;SDS011;54298;52.076;5.264;2022-11-25T09:00:57;28.4;;;15.4;;
67429;SDS011;54298;52.076;5.264;2022-11-25T09:02:34;27.4;;;13.7;;
67429;SDS011;54298;52.076;5.264;2022-11-25T09:04:10;14.8;;;5.8;;
67429;SDS011;54298;52.076;5.264;2022-11-25T09:07:25;15.1;;;7.6;;
67429;SDS011;54298;52.076;5.264;2022-11-25T09:09:01;11.5;;;6.6;;
67429;SDS011;54298;52.076;5.264;2022-11-25T09:10:38;16.8;;;8.5;;
67429;SDS011;54298;52.076;5.264;2022-11-25T09:12:15;12.6;;;5.6;;
67429;SDS011;54298;52.076;5.264;2022-11-25T09:15:29;22.7;;;9.81;;
67429;SDS011;54298;52.076;5.264;2022-11-25T09:17:07;15.2;;;6.2;;
67429;SDS011;54298;52.076;5.264;2022-11-25T09:18:44;11.7;;;5.5;;
67429;SDS011;54298;52.076;5.264;2022-11-25T09:21:58;15.6;;;7.7;;
67429;SDS011;54298;52.076;5.264;2022-11-25T09:23:34;13.2;;;5.0;;
67429;SDS011;54298;52.076;5.264;2022-11-25T09:25:10;14.7;;;5.6;;
67429;SDS011;54298;52.076;5.264;2022-11-25T09:28:25;18.61;;;6.1;;
67429;SDS011;54298;52.076;5.264;2022-11-25T09:30:02;20.5;;;9.6;;
67429;SDS011;54298;52.076;5.264;2022-11-25T09:31:39;15.9;;;6.1;;
67429;SDS011;54298;52.076;5.264;2022-11-25T09:33:15;14.7;;;6.8;;
67429;SDS011;54298;52.076;5.264;2022-11-25T09:36:28;12.8;;;5.9;;
67429;SDS011;54298;52.076;5.264;2022-11-25T09:38:05;13.8;;;5.3;;
67429;SDS011;54298;52.076;5.264;2022-11-25T09:39:41;16.8;;;8.0;;
67429;SDS011;54298;52.076;5.264;2022-11-25T09:48:19;18.11;;;6.7;;
67429;SDS011;54298;52.076;5.264;2022-11-25T09:50:13;16.0;;;6.8;;
67429;SDS011;54298;52.076;5.264;2022-11-25T09:53:49;17.41;;;6.4;;
67429;SDS011;54298;52.076;5.264;2022-11-25T09:55:29;27.3;;;12.9;;
67429;SDS011;54298;52.076;5.264;2022-11-25T09:57:17;47.2;;;23.5;;
67429;SDS011;54298;52.076;5.264;2022-11-25T09:58:58;27.4;;;13.8;;
67429;SDS011;54298;52.076;5.264;2022-11-25T10:00:40;20.11;;;9.21;;
67429;SDS011;54298;52.076;5.264;2022-11-25T10:04:03;49.2;;;31.0;;
67429;SDS011;54298;52.076;5.264;2022-11-25T10:05:48;51.7;;;28.7;;
67429;SDS011;54298;52.076;5.264;2022-11-25T10:07:33;84.5;;;40.9;;
67429;SDS011;54298;52.076;5.264;2022-11-25T10:09:14;32.0;;;16.0;;
67429;SDS011;54298;52.076;5.264;2022-11-25T10:10:57;16.3;;;6.8;;
67429;SDS011;54298;52.076;5.264;2022-11-25T10:14:23;31.1;;;14.8;;
67429;SDS011;54298;52.076;5.264;2022-11-25T10:16:13;15.0;;;5.7;;
67429;SDS011;54298;52.076;5.264;2022-11-25T10:18:10;24.4;;;13.0;;
67429;SDS011;54298;52.076;5.264;2022-11-25T10:19:56;16.8;;;7.2;;
67429;SDS011;54298;52.076;5.264;2022-11-25T10:21:38;18.5;;;8.5;;
67429;SDS011;54298;52.076;5.264;2022-11-25T10:25:05;14.4;;;7.1;;
67429;SDS011;54298;52.076;5.264;2022-11-25T10:26:52;24.3;;;11.3;;
67429;SDS011;54298;52.076;5.264;2022-11-25T10:28:35;16.2;;;6.8;;
67429;SDS011;54298;52.076;5.264;2022-11-25T10:30:16;16.4;;;6.7;;
67429;SDS011;54298;52.076;5.264;2022-11-25T10:31:58;24.1;;;12.0;;
67429;SDS011;54298;52.076;5.264;2022-11-25T10:33:54;22.3;;;10.9;;
67429;SDS011;54298;52.076;5.264;2022-11-25T10:37:17;20.41;;;9.6;;
67429;SDS011;54298;52.076;5.264;2022-11-25T10:39:05;19.11;;;8.4;;
67429;SDS011;54298;52.076;5.264;2022-11-25T10:40:49;22.6;;;12.5;;
67429;SDS011;54298;52.076;5.264;2022-11-25T10:42:27;15.9;;;7.0;;
67429;SDS011;54298;52.076;5.264;2022-11-25T10:46:04;23.3;;;11.1;;
67429;SDS011;54298;52.076;5.264;2022-11-25T10:47:59;16.0;;;6.7;;
67429;SDS011;54298;52.076;5.264;2022-11-25T10:49:59;18.2;;;8.1;;
67429;SDS011;54298;52.076;5.264;2022-11-25T10:51:44;17.11;;;7.0;;
67429;SDS011;54298;52.076;5.264;2022-11-25T10:53:23;17.0;;;7.2;;
67429;SDS011;54298;52.076;5.264;2022-11-25T10:55:08;18.41;;;8.2;;
67429;SDS011;54298;52.076;5.264;2022-11-25T10:58:29;20.0;;;8.71;;
67429;SDS011;54298;52.076;5.264;2022-11-25T11:00:22;18.2;;;7.8;;
67429;SDS011;54298;52.076;5.264;2022-11-25T11:02:11;18.8;;;8.5;;
67429;SDS011;54298;52.076;5.264;2022-11-25T11:03:54;18.5;;;7.7;;
67429;SDS011;54298;52.076;5.264;2022-11-25T11:05:43;51.9;;;28.0;;
67429;SDS011;54298;52.076;5.264;2022-11-25T11:07:22;38.5;;;20.5;;
67429;SDS011;54298;52.076;5.264;2022-11-25T11:10:36;40.0;;;20.3;;
67429;SDS011;54298;52.076;5.264;2022-11-25T11:12:14;38.4;;;18.61;;
67429;SDS011;54298;52.076;5.264;2022-11-25T11:13:58;16.2;;;6.8;;
67429;SDS011;54298;52.076;5.264;2022-11-25T11:15:49;18.61;;;8.81;;
67429;SDS011;54298;52.076;5.264;2022-11-25T11:19:19;19.61;;;8.1;;
67429;SDS011;54298;52.076;5.264;2022-11-25T11:21:03;19.11;;;7.0;;
67429;SDS011;54298;52.076;5.264;2022-11-25T11:22:46;21.4;;;8.0;;
67429;SDS011;54298;52.076;5.264;2022-11-25T11:24:28;17.11;;;7.3;;
67429;SDS011;54298;52.076;5.264;2022-11-25T11:27:58;18.0;;;7.7;;
67429;SDS011;54298;52.076;5.264;2022-11-25T11:29:35;17.5;;;7.8;;
67429;SDS011;54298;52.076;5.264;2022-11-25T11:31:14;20.11;;;8.31;;
67429;SDS011;54298;52.076;5.264;2022-11-25T11:32:55;18.2;;;7.0;;
67429;SDS011;54298;52.076;5.264;2022-11-25T11:34:39;19.91;;;7.3;;
67429;SDS011;54298;52.076;5.264;2022-11-25T11:38:25;17.61;;;6.9;;
67429;SDS011;54298;52.076;5.264;2022-11-25T11:40:23;18.11;;;6.7;;
67429;SDS011;54298;52.076;5.264;2022-11-25T11:42:19;19.0;;;7.4;;
67429;SDS011;54298;52.076;5.264;2022-11-25T11:44:08;16.0;;;6.3;;
67429;SDS011;54298;52.076;5.264;2022-11-25T11:45:58;20.0;;;6.5;;
67429;SDS011;54298;52.076;5.264;2022-11-25T11:47:56;23.4;;;6.8;;
67429;SDS011;54298;52.076;5.264;2022-11-25T11:49:51;21.5;;;6.5;;
67429;SDS011;54298;52.076;5.264;2022-11-25T11:51:44;16.3;;;6.0;;
67429;SDS011;54298;52.076;5.264;2022-11-25T11:53:30;45.1;;;23.6;;
67429;SDS011;54298;52.076;5.264;2022-11-25T11:57:15;27.8;;;10.7;;
67429;SDS011;54298;52.076;5.264;2022-11-25T11:59:09;38.31;;;17.2;;
67429;SDS011;54298;52.076;5.264;2022-11-25T12:01:53;65.91;;;32.3;;
67429;SDS011;54298;52.076;5.264;2022-11-25T12:03:50;24.6;;;8.0;;
67429;SDS011;54298;52.076;5.264;2022-11-25T12:07:13;22.3;;;8.4;;
67429;SDS011;54298;52.076;5.264;2022-11-25T12:08:59;16.7;;;5.8;;
67429;SDS011;54298;52.076;5.264;2022-11-25T12:10:40;34.71;;;15.8;;
67429;SDS011;54298;52.076;5.264;2022-11-25T12:12:23;25.6;;;11.8;;
67429;SDS011;54298;52.076;5.264;2022-11-25T12:16:07;20.41;;;7.0;;
67429;SDS011;54298;52.076;5.264;2022-11-25T12:17:50;25.5;;;8.81;;
67429;SDS011;54298;52.076;5.264;2022-11-25T12:19:35;22.5;;;8.0;;
67429;SDS011;54298;52.076;5.264;2022-11-25T12:21:24;19.41;;;5.9;;
67429;SDS011;54298;52.076;5.264;2022-11-25T12:23:12;20.3;;;5.8;;
67429;SDS011;54298;52.076;5.264;2022-11-25T12:24:58;18.8;;;6.8;;
67429;SDS011;54298;52.076;5.264;2022-11-25T12:28:31;22.4;;;8.1;;
67429;SDS011;54298;52.076;5.264;2022-11-25T12:30:14;20.2;;;6.2;;
67429;SDS011;54298;52.076;5.264;2022-11-25T12:31:55;20.5;;;6.1;;
67429;SDS011;54298;52.076;5.264;2022-11-25T12:33:45;18.0;;;5.9;;
67429;SDS011;54298;52.076;5.264;2022-11-25T12:35:35;16.8;;;5.2;;
67429;SDS011;54298;52.076;5.264;2022-11-25T12:37:23;15.5;;;5.3;;
67429;SDS011;54298;52.076;5.264;2022-11-25T12:40:58;21.6;;;6.6;;
67429;SDS011;54298;52.076;5.264;2022-11-25T12:42:46;15.4;;;4.61;;
67429;SDS011;54298;52.076;5.264;2022-11-25T12:44:25;16.11;;;5.4;;
67429;SDS011;54298;52.076;5.264;2022-11-25T12:46:18;19.0;;;5.6;;
67429;SDS011;54298;52.076;5.264;2022-11-25T12:48:01;21.1;;;5.7;;
67429;SDS011;54298;52.076;5.264;2022-11-25T12:51:23;17.91;;;4.8;;
67429;SDS011;54298;52.076;5.264;2022-11-25T12:53:17;19.8;;;6.8;;
67429;SDS011;54298;52.076;5.264;2022-11-25T12:55:05;75.7;;;43.9;;
67429;SDS011;54298;52.076;5.264;2022-11-25T12:56:54;22.4;;;8.2;;
67429;SDS011;54298;52.076;5.264;2022-11-25T12:58:59;31.7;;;13.9;;
67429;SDS011;54298;52.076;5.264;2022-11-25T13:01:09;43.0;;;19.11;;
67429;SDS011;54298;52.076;5.264;2022-11-25T13:07:07;47.6;;;26.6;;
67429;SDS011;54298;52.076;5.264;2022-11-25T13:09:13;26.0;;;10.6;;
67429;SDS011;54298;52.076;5.264;2022-11-25T13:11:12;21.0;;;7.8;;
67429;SDS011;54298;52.076;5.264;2022-11-25T13:13:06;19.11;;;5.7;;
67429;SDS011;54298;52.076;5.264;2022-11-25T13:15:16;17.0;;;6.0;;
67429;SDS011;54298;52.076;5.264;2022-11-25T13:17:00;22.5;;;7.3;;